sensor_id;sensor_type;location;lat;lon;timestamp;temperature;humidity
33564;DHT22;19894;48.452;11.494;2022-12-07T00:01:10;18.70;37.50
33564;DHT22;19894;48.452;11.494;2022-12-07T00:03:37;18.70;37.50
33564;DHT22;19894;48.452;11.494;2022-12-07T00:06:04;18.70;37.50
33564;DHT22;19894;48.452;11.494;2022-12-07T00:08:31;18.60;37.40
33564;DHT22;19894;48.452;11.494;2022-12-07T00:11:04;18.70;37.50
33564;DHT22;19894;48.452;11.494;2022-12-07T00:13:31;18.70;37.50
33564;DHT22;19894;48.452;11.494;2022-12-07T00:16:08;18.70;37.50
33564;DHT22;19894;48.452;11.494;2022-12-07T00:18:35;18.60;37.40
33564;DHT22;19894;48.452;11.494;2022-12-07T00:21:07;18.60;37.40
33564;DHT22;19894;48.452;11.494;2022-12-07T00:23:33;18.60;37.40
33564;DHT22;19894;48.452;11.494;2022-12-07T00:26:10;18.70;37.50
33564;DHT22;19894;48.452;11.494;2022-12-07T00:28:37;18.70;37.50
33564;DHT22;19894;48.452;11.494;2022-12-07T00:31:08;18.70;37.50
33564;DHT22;19894;48.452;11.494;2022-12-07T00:33:34;18.60;37.90
33564;DHT22;19894;48.452;11.494;2022-12-07T00:36:00;18.70;37.50
33564;DHT22;19894;48.452;11.494;2022-12-07T00:38:29;18.70;38.00
33564;DHT22;19894;48.452;11.494;2022-12-07T00:40:59;18.70;37.50
33564;DHT22;19894;48.452;11.494;2022-12-07T00:43:26;18.70;37.40
33564;DHT22;19894;48.452;11.494;2022-12-07T00:45:53;18.70;37.50
33564;DHT22;19894;48.452;11.494;2022-12-07T00:48:19;18.70;37.40
33564;DHT22;19894;48.452;11.494;2022-12-07T00:50:45;18.70;37.50
33564;DHT22;19894;48.452;11.494;2022-12-07T00:53:10;18.70;37.50
33564;DHT22;19894;48.452;11.494;2022-12-07T00:55:36;18.70;37.50
33564;DHT22;19894;48.452;11.494;2022-12-07T00:58:02;18.70;37.40
33564;DHT22;19894;48.452;11.494;2022-12-07T01:00:28;18.70;38.00
33564;DHT22;19894;48.452;11.494;2022-12-07T01:02:54;18.70;37.40
33564;DHT22;19894;48.452;11.494;2022-12-07T01:05:19;18.70;37.50
33564;DHT22;19894;48.452;11.494;2022-12-07T01:07:45;18.70;37.50
33564;DHT22;19894;48.452;11.494;2022-12-07T01:10:12;18.70;37.50
33564;DHT22;19894;48.452;11.494;2022-12-07T01:12:38;18.70;37.50
33564;DHT22;19894;48.452;11.494;2022-12-07T01:15:04;18.70;37.50
33564;DHT22;19894;48.452;11.494;2022-12-07T01:17:30;18.60;37.40
33564;DHT22;19894;48.452;11.494;2022-12-07T01:19:56;18.70;37.40
33564;DHT22;19894;48.452;11.494;2022-12-07T01:22:21;18.70;37.40
33564;DHT22;19894;48.452;11.494;2022-12-07T01:24:47;18.70;37.40
33564;DHT22;19894;48.452;11.494;2022-12-07T01:27:13;18.60;37.30
33564;DHT22;19894;48.452;11.494;2022-12-07T01:29:38;18.70;37.50
33564;DHT22;19894;48.452;11.494;2022-12-07T01:32:04;18.60;37.40
33564;DHT22;19894;48.452;11.494;2022-12-07T01:34:30;18.60;37.40
33564;DHT22;19894;48.452;11.494;2022-12-07T01:36:56;18.70;37.40
33564;DHT22;19894;48.452;11.494;2022-12-07T01:39:22;18.70;37.40
33564;DHT22;19894;48.452;11.494;2022-12-07T01:41:48;18.70;37.40
33564;DHT22;19894;48.452;11.494;2022-12-07T01:47:08;18.70;37.40
33564;DHT22;19894;48.452;11.494;2022-12-07T01:49:40;18.70;37.40
33564;DHT22;19894;48.452;11.494;2022-12-07T01:54:41;18.70;37.40
33564;DHT22;19894;48.452;11.494;2022-12-07T01:57:08;18.70;37.40
33564;DHT22;19894;48.452;11.494;2022-12-07T01:59:34;18.70;37.40
33564;DHT22;19894;48.452;11.494;2022-12-07T02:02:02;18.70;37.40
33564;DHT22;19894;48.452;11.494;2022-12-07T02:04:28;18.70;37.40
33564;DHT22;19894;48.452;11.494;2022-12-07T02:06:54;18.70;37.40
33564;DHT22;19894;48.452;11.494;2022-12-07T02:09:21;18.70;37.40
33564;DHT22;19894;48.452;11.494;2022-12-07T02:11:46;18.70;37.40
33564;DHT22;19894;48.452;11.494;2022-12-07T02:14:12;18.70;37.40
33564;DHT22;19894;48.452;11.494;2022-12-07T02:16:47;18.70;37.30
33564;DHT22;19894;48.452;11.494;2022-12-07T02:30:45;18.70;37.30
33564;DHT22;19894;48.452;11.494;2022-12-07T02:33:26;18.60;37.30
33564;DHT22;19894;48.452;11.494;2022-12-07T02:36:01;18.60;37.30
33564;DHT22;19894;48.452;11.494;2022-12-07T02:38:35;18.70;37.30
33564;DHT22;19894;48.452;11.494;2022-12-07T02:41:10;18.70;37.90
33564;DHT22;19894;48.452;11.494;2022-12-07T02:43:44;18.70;37.30
33564;DHT22;19894;48.452;11.494;2022-12-07T02:46:14;18.70;37.30
33564;DHT22;19894;48.452;11.494;2022-12-07T02:48:41;18.70;37.30
33564;DHT22;19894;48.452;11.494;2022-12-07T02:51:08;18.70;37.30
33564;DHT22;19894;48.452;11.494;2022-12-07T03:01:50;18.70;37.30
33564;DHT22;19894;48.452;11.494;2022-12-07T03:13:01;18.70;37.30
33564;DHT22;19894;48.452;11.494;2022-12-07T03:18:17;18.70;37.30
33564;DHT22;19894;48.452;11.494;2022-12-07T03:20:44;18.60;37.20
33564;DHT22;19894;48.452;11.494;2022-12-07T03:23:12;18.60;37.20
33564;DHT22;19894;48.452;11.494;2022-12-07T03:25:44;18.60;37.20
33564;DHT22;19894;48.452;11.494;2022-12-07T03:28:13;18.60;37.20
33564;DHT22;19894;48.452;11.494;2022-12-07T03:30:48;18.60;37.20
33564;DHT22;19894;48.452;11.494;2022-12-07T03:33:23;18.60;37.20
33564;DHT22;19894;48.452;11.494;2022-12-07T03:38:49;18.60;37.20
33564;DHT22;19894;48.452;11.494;2022-12-07T03:41:24;18.70;37.30
33564;DHT22;19894;48.452;11.494;2022-12-07T03:43:51;18.70;37.30
33564;DHT22;19894;48.452;11.494;2022-12-07T03:48:56;18.70;37.20
33564;DHT22;19894;48.452;11.494;2022-12-07T03:51:31;18.70;37.30
33564;DHT22;19894;48.452;11.494;2022-12-07T03:54:01;18.70;37.30
33564;DHT22;19894;48.452;11.494;2022-12-07T03:56:28;18.70;37.30
33564;DHT22;19894;48.452;11.494;2022-12-07T03:58:55;18.70;37.30
33564;DHT22;19894;48.452;11.494;2022-12-07T04:01:20;18.70;37.30
33564;DHT22;19894;48.452;11.494;2022-12-07T04:03:47;18.70;37.30
33564;DHT22;19894;48.452;11.494;2022-12-07T04:06:13;18.70;37.30
33564;DHT22;19894;48.452;11.494;2022-12-07T04:08:39;18.70;37.30
33564;DHT22;19894;48.452;11.494;2022-12-07T04:11:05;18.70;37.30
33564;DHT22;19894;48.452;11.494;2022-12-07T04:13:30;18.70;37.30
33564;DHT22;19894;48.452;11.494;2022-12-07T04:16:16;18.70;37.30
33564;DHT22;19894;48.452;11.494;2022-12-07T04:18:41;18.70;37.30
33564;DHT22;19894;48.452;11.494;2022-12-07T04:21:07;18.70;37.30
33564;DHT22;19894;48.452;11.494;2022-12-07T04:23:33;18.70;37.30
33564;DHT22;19894;48.452;11.494;2022-12-07T04:25:58;18.60;37.20
33564;DHT22;19894;48.452;11.494;2022-12-07T04:28:24;18.60;37.20
33564;DHT22;19894;48.452;11.494;2022-12-07T04:30:49;18.60;37.20
33564;DHT22;19894;48.452;11.494;2022-12-07T04:33:15;18.60;37.20
33564;DHT22;19894;48.452;11.494;2022-12-07T04:35:42;18.60;37.20
33564;DHT22;19894;48.452;11.494;2022-12-07T04:38:08;18.70;37.30
33564;DHT22;19894;48.452;11.494;2022-12-07T04:40:34;18.70;37.20
33564;DHT22;19894;48.452;11.494;2022-12-07T04:43:00;18.70;37.20
33564;DHT22;19894;48.452;11.494;2022-12-07T04:45:25;18.70;37.30
33564;DHT22;19894;48.452;11.494;2022-12-07T04:47:51;18.70;37.20
33564;DHT22;19894;48.452;11.494;2022-12-07T04:50:17;18.70;37.20
33564;DHT22;19894;48.452;11.494;2022-12-07T04:52:42;18.70;37.20
33564;DHT22;19894;48.452;11.494;2022-12-07T04:55:08;18.70;37.20
33564;DHT22;19894;48.452;11.494;2022-12-07T04:57:34;18.70;37.20
33564;DHT22;19894;48.452;11.494;2022-12-07T04:59:59;18.70;37.20
33564;DHT22;19894;48.452;11.494;2022-12-07T05:02:25;18.70;37.20
33564;DHT22;19894;48.452;11.494;2022-12-07T05:04:50;18.70;37.20
33564;DHT22;19894;48.452;11.494;2022-12-07T05:07:16;18.70;37.20
33564;DHT22;19894;48.452;11.494;2022-12-07T05:09:42;18.70;37.20
33564;DHT22;19894;48.452;11.494;2022-12-07T05:12:07;18.70;37.20
33564;DHT22;19894;48.452;11.494;2022-12-07T05:14:33;18.70;37.20
33564;DHT22;19894;48.452;11.494;2022-12-07T05:16:58;18.70;37.20
33564;DHT22;19894;48.452;11.494;2022-12-07T05:19:24;18.60;37.20
33564;DHT22;19894;48.452;11.494;2022-12-07T05:21:51;18.70;37.20
33564;DHT22;19894;48.452;11.494;2022-12-07T05:24:17;18.70;37.20
33564;DHT22;19894;48.452;11.494;2022-12-07T05:26:44;18.60;37.20
33564;DHT22;19894;48.452;11.494;2022-12-07T05:29:12;18.60;37.20
33564;DHT22;19894;48.452;11.494;2022-12-07T05:31:37;18.60;37.10
33564;DHT22;19894;48.452;11.494;2022-12-07T05:34:03;18.60;37.20
33564;DHT22;19894;48.452;11.494;2022-12-07T05:36:29;18.60;37.10
33564;DHT22;19894;48.452;11.494;2022-12-07T05:38:57;18.60;37.20
33564;DHT22;19894;48.452;11.494;2022-12-07T05:41:22;18.70;37.20
33564;DHT22;19894;48.452;11.494;2022-12-07T05:44:06;18.70;37.20
33564;DHT22;19894;48.452;11.494;2022-12-07T05:46:32;18.70;37.20
33564;DHT22;19894;48.452;11.494;2022-12-07T05:48:58;18.70;37.20
33564;DHT22;19894;48.452;11.494;2022-12-07T05:51:24;18.70;37.10
33564;DHT22;19894;48.452;11.494;2022-12-07T05:53:49;18.70;37.10
33564;DHT22;19894;48.452;11.494;2022-12-07T05:56:15;18.70;37.10
33564;DHT22;19894;48.452;11.494;2022-12-07T05:58:40;18.70;37.20
33564;DHT22;19894;48.452;11.494;2022-12-07T06:01:25;18.70;37.20
33564;DHT22;19894;48.452;11.494;2022-12-07T06:03:50;18.70;37.20
33564;DHT22;19894;48.452;11.494;2022-12-07T06:06:16;18.70;37.20
33564;DHT22;19894;48.452;11.494;2022-12-07T06:08:41;18.70;37.20
33564;DHT22;19894;48.452;11.494;2022-12-07T06:11:07;18.70;37.20
33564;DHT22;19894;48.452;11.494;2022-12-07T06:14:08;18.70;37.20
33564;DHT22;19894;48.452;11.494;2022-12-07T06:16:33;18.70;37.20
33564;DHT22;19894;48.452;11.494;2022-12-07T06:18:59;18.70;37.20
33564;DHT22;19894;48.452;11.494;2022-12-07T06:21:25;18.60;37.10
33564;DHT22;19894;48.452;11.494;2022-12-07T06:23:52;18.60;37.10
33564;DHT22;19894;48.452;11.494;2022-12-07T06:26:18;18.60;37.10
33564;DHT22;19894;48.452;11.494;2022-12-07T06:28:43;18.60;37.10
33564;DHT22;19894;48.452;11.494;2022-12-07T06:31:09;18.70;37.10
33564;DHT22;19894;48.452;11.494;2022-12-07T06:33:35;18.60;37.00
33564;DHT22;19894;48.452;11.494;2022-12-07T06:36:01;18.70;37.20
33564;DHT22;19894;48.452;11.494;2022-12-07T06:38:26;18.60;37.10
33564;DHT22;19894;48.452;11.494;2022-12-07T06:40:53;18.70;37.10
33564;DHT22;19894;48.452;11.494;2022-12-07T06:43:18;18.70;37.10
33564;DHT22;19894;48.452;11.494;2022-12-07T06:45:44;18.70;37.10
33564;DHT22;19894;48.452;11.494;2022-12-07T06:48:10;18.60;37.00
33564;DHT22;19894;48.452;11.494;2022-12-07T06:50:36;18.70;37.10
33564;DHT22;19894;48.452;11.494;2022-12-07T06:53:01;18.70;37.10
33564;DHT22;19894;48.452;11.494;2022-12-07T06:55:27;18.70;37.00
33564;DHT22;19894;48.452;11.494;2022-12-07T06:57:52;18.70;37.10
33564;DHT22;19894;48.452;11.494;2022-12-07T07:00:18;18.70;37.10
33564;DHT22;19894;48.452;11.494;2022-12-07T07:02:44;18.70;37.10
33564;DHT22;19894;48.452;11.494;2022-12-07T07:05:10;18.70;37.10
33564;DHT22;19894;48.452;11.494;2022-12-07T07:07:35;18.70;37.10
33564;DHT22;19894;48.452;11.494;2022-12-07T07:10:01;18.70;37.10
33564;DHT22;19894;48.452;11.494;2022-12-07T07:12:27;18.70;37.10
33564;DHT22;19894;48.452;11.494;2022-12-07T07:14:52;18.70;37.10
33564;DHT22;19894;48.452;11.494;2022-12-07T07:17:18;18.70;37.10
33564;DHT22;19894;48.452;11.494;2022-12-07T07:19:44;18.70;37.10
33564;DHT22;19894;48.452;11.494;2022-12-07T07:22:09;18.60;37.50
33564;DHT22;19894;48.452;11.494;2022-12-07T07:24:35;18.70;37.10
33564;DHT22;19894;48.452;11.494;2022-12-07T07:27:01;18.60;36.90
33564;DHT22;19894;48.452;11.494;2022-12-07T07:29:26;18.70;37.00
33564;DHT22;19894;48.452;11.494;2022-12-07T07:31:52;18.60;36.90
33564;DHT22;19894;48.452;11.494;2022-12-07T07:34:18;18.60;36.90
33564;DHT22;19894;48.452;11.494;2022-12-07T07:36:43;18.60;36.90
33564;DHT22;19894;48.452;11.494;2022-12-07T07:39:10;18.60;37.00
33564;DHT22;19894;48.452;11.494;2022-12-07T07:41:38;18.60;37.00
33564;DHT22;19894;48.452;11.494;2022-12-07T07:44:03;18.70;37.00
33564;DHT22;19894;48.452;11.494;2022-12-07T07:46:29;18.70;37.00
33564;DHT22;19894;48.452;11.494;2022-12-07T07:48:55;18.70;37.00
33564;DHT22;19894;48.452;11.494;2022-12-07T07:51:21;18.70;37.00
33564;DHT22;19894;48.452;11.494;2022-12-07T07:53:47;18.70;36.90
33564;DHT22;19894;48.452;11.494;2022-12-07T07:56:12;18.70;36.90
33564;DHT22;19894;48.452;11.494;2022-12-07T07:58:38;18.70;36.90
33564;DHT22;19894;48.452;11.494;2022-12-07T08:01:06;18.70;37.00
33564;DHT22;19894;48.452;11.494;2022-12-07T08:03:32;18.70;37.00
33564;DHT22;19894;48.452;11.494;2022-12-07T08:05:57;18.70;37.00
33564;DHT22;19894;48.452;11.494;2022-12-07T08:08:23;18.70;37.00
33564;DHT22;19894;48.452;11.494;2022-12-07T08:10:48;18.70;37.00
33564;DHT22;19894;48.452;11.494;2022-12-07T08:13:16;18.70;37.50
33564;DHT22;19894;48.452;11.494;2022-12-07T08:15:47;18.70;37.00
33564;DHT22;19894;48.452;11.494;2022-12-07T08:18:14;18.60;36.90
33564;DHT22;19894;48.452;11.494;2022-12-07T08:20:41;18.70;36.90
33564;DHT22;19894;48.452;11.494;2022-12-07T08:23:08;18.70;36.90
33564;DHT22;19894;48.452;11.494;2022-12-07T08:25:34;18.60;36.90
33564;DHT22;19894;48.452;11.494;2022-12-07T08:28:00;18.70;36.90
33564;DHT22;19894;48.452;11.494;2022-12-07T08:30:27;18.60;36.80
33564;DHT22;19894;48.452;11.494;2022-12-07T08:32:53;18.60;36.80
33564;DHT22;19894;48.452;11.494;2022-12-07T08:35:18;18.60;36.80
33564;DHT22;19894;48.452;11.494;2022-12-07T08:37:44;18.60;37.30
33564;DHT22;19894;48.452;11.494;2022-12-07T08:40:12;18.60;36.80
33564;DHT22;19894;48.452;11.494;2022-12-07T08:42:42;18.60;36.80
33564;DHT22;19894;48.452;11.494;2022-12-07T08:45:13;18.60;36.80
33564;DHT22;19894;48.452;11.494;2022-12-07T08:47:43;18.60;36.80
33564;DHT22;19894;48.452;11.494;2022-12-07T08:50:11;18.60;36.80
33564;DHT22;19894;48.452;11.494;2022-12-07T08:52:39;18.70;36.90
33564;DHT22;19894;48.452;11.494;2022-12-07T08:55:06;18.70;36.90
33564;DHT22;19894;48.452;11.494;2022-12-07T08:57:33;18.70;36.80
33564;DHT22;19894;48.452;11.494;2022-12-07T09:00:00;18.70;36.80
33564;DHT22;19894;48.452;11.494;2022-12-07T09:02:26;18.70;36.80
33564;DHT22;19894;48.452;11.494;2022-12-07T09:04:51;18.70;36.80
33564;DHT22;19894;48.452;11.494;2022-12-07T09:07:17;18.70;36.90
33564;DHT22;19894;48.452;11.494;2022-12-07T09:09:43;18.70;36.90
33564;DHT22;19894;48.452;11.494;2022-12-07T09:12:08;18.70;36.80
33564;DHT22;19894;48.452;11.494;2022-12-07T09:14:36;18.70;36.80
33564;DHT22;19894;48.452;11.494;2022-12-07T09:17:09;18.70;36.90
33564;DHT22;19894;48.452;11.494;2022-12-07T09:19:35;18.70;36.80
33564;DHT22;19894;48.452;11.494;2022-12-07T09:22:02;18.70;36.80
33564;DHT22;19894;48.452;11.494;2022-12-07T09:24:27;18.60;36.80
33564;DHT22;19894;48.452;11.494;2022-12-07T09:26:53;18.60;36.80
33564;DHT22;19894;48.452;11.494;2022-12-07T09:29:19;18.70;36.80
33564;DHT22;19894;48.452;11.494;2022-12-07T09:31:44;18.60;36.70
33564;DHT22;19894;48.452;11.494;2022-12-07T09:34:10;18.70;36.80
33564;DHT22;19894;48.452;11.494;2022-12-07T09:36:36;18.60;36.70
33564;DHT22;19894;48.452;11.494;2022-12-07T09:39:02;18.60;36.70
33564;DHT22;19894;48.452;11.494;2022-12-07T09:41:30;18.60;36.70
33564;DHT22;19894;48.452;11.494;2022-12-07T09:44:09;18.60;36.70
33564;DHT22;19894;48.452;11.494;2022-12-07T09:46:39;18.60;36.70
33564;DHT22;19894;48.452;11.494;2022-12-07T09:49:19;18.60;36.80
33564;DHT22;19894;48.452;11.494;2022-12-07T09:51:46;18.60;36.80
33564;DHT22;19894;48.452;11.494;2022-12-07T09:54:13;18.60;36.80
33564;DHT22;19894;48.452;11.494;2022-12-07T09:56:39;18.60;36.80
33564;DHT22;19894;48.452;11.494;2022-12-07T09:59:05;18.60;36.80
33564;DHT22;19894;48.452;11.494;2022-12-07T10:01:32;18.70;36.80
33564;DHT22;19894;48.452;11.494;2022-12-07T10:04:12;18.70;36.80
33564;DHT22;19894;48.452;11.494;2022-12-07T10:06:41;18.70;36.80
33564;DHT22;19894;48.452;11.494;2022-12-07T10:09:11;18.70;36.80
33564;DHT22;19894;48.452;11.494;2022-12-07T10:12:07;18.60;37.30
33564;DHT22;19894;48.452;11.494;2022-12-07T10:14:37;18.70;36.90
33564;DHT22;19894;48.452;11.494;2022-12-07T10:20:18;18.70;36.80
33564;DHT22;19894;48.452;11.494;2022-12-07T10:25:25;18.60;36.80
33564;DHT22;19894;48.452;11.494;2022-12-07T10:28:17;18.70;36.80
33564;DHT22;19894;48.452;11.494;2022-12-07T10:30:48;18.60;36.80
33564;DHT22;19894;48.452;11.494;2022-12-07T10:33:36;18.60;36.80
33564;DHT22;19894;48.452;11.494;2022-12-07T10:39:11;18.60;36.80
33564;DHT22;19894;48.452;11.494;2022-12-07T10:42:02;18.60;36.80
33564;DHT22;19894;48.452;11.494;2022-12-07T10:44:29;18.60;36.80
33564;DHT22;19894;48.452;11.494;2022-12-07T10:47:01;18.60;36.80
33564;DHT22;19894;48.452;11.494;2022-12-07T10:52:54;18.60;36.80
33564;DHT22;19894;48.452;11.494;2022-12-07T10:58:17;18.60;36.80
33564;DHT22;19894;48.452;11.494;2022-12-07T11:03:42;18.70;36.80
33564;DHT22;19894;48.452;11.494;2022-12-07T11:09:44;18.70;36.80
33564;DHT22;19894;48.452;11.494;2022-12-07T11:11:50;18.60;36.80
33564;DHT22;19894;48.452;11.494;2022-12-07T11:14:22;18.70;36.90
33564;DHT22;19894;48.452;11.494;2022-12-07T11:16:57;18.70;36.90
33564;DHT22;19894;48.452;11.494;2022-12-07T11:19:47;18.70;36.80
33564;DHT22;19894;48.452;11.494;2022-12-07T11:25:39;18.60;36.70
33564;DHT22;19894;48.452;11.494;2022-12-07T11:28:28;18.60;36.70
33564;DHT22;19894;48.452;11.494;2022-12-07T11:31:22;18.60;36.70
33564;DHT22;19894;48.452;11.494;2022-12-07T11:33:53;18.60;36.70
33564;DHT22;19894;48.452;11.494;2022-12-07T11:36:37;18.60;36.80
33564;DHT22;19894;48.452;11.494;2022-12-07T11:39:04;18.60;36.70
33564;DHT22;19894;48.452;11.494;2022-12-07T11:41:37;18.60;36.70
33564;DHT22;19894;48.452;11.494;2022-12-07T11:44:17;18.60;36.70
33564;DHT22;19894;48.452;11.494;2022-12-07T11:47:07;18.60;36.70
33564;DHT22;19894;48.452;11.494;2022-12-07T11:54:59;18.60;36.70
33564;DHT22;19894;48.452;11.494;2022-12-07T11:57:35;18.60;36.70
33564;DHT22;19894;48.452;11.494;2022-12-07T12:00:13;18.60;36.60
33564;DHT22;19894;48.452;11.494;2022-12-07T12:05:19;18.60;36.70
33564;DHT22;19894;48.452;11.494;2022-12-07T12:07:54;18.60;36.60
33564;DHT22;19894;48.452;11.494;2022-12-07T12:10:29;18.70;36.70
33564;DHT22;19894;48.452;11.494;2022-12-07T12:13:04;18.70;36.70
33564;DHT22;19894;48.452;11.494;2022-12-07T12:20:54;18.70;36.70
33564;DHT22;19894;48.452;11.494;2022-12-07T12:23:35;18.70;36.60
33564;DHT22;19894;48.452;11.494;2022-12-07T12:26:05;18.70;36.60
33564;DHT22;19894;48.452;11.494;2022-12-07T12:28:40;18.60;36.60
33564;DHT22;19894;48.452;11.494;2022-12-07T12:31:30;18.60;36.60
33564;DHT22;19894;48.452;11.494;2022-12-07T12:34:00;18.60;36.60
33564;DHT22;19894;48.452;11.494;2022-12-07T12:39:11;18.60;36.60
33564;DHT22;19894;48.452;11.494;2022-12-07T12:51:51;18.60;36.50
33564;DHT22;19894;48.452;11.494;2022-12-07T12:54:35;18.60;36.50
33564;DHT22;19894;48.452;11.494;2022-12-07T13:02:26;18.60;36.50
33564;DHT22;19894;48.452;11.494;2022-12-07T13:05:14;18.60;36.40
33564;DHT22;19894;48.452;11.494;2022-12-07T13:15:54;18.70;36.50
33564;DHT22;19894;48.452;11.494;2022-12-07T13:26:12;18.70;36.60
33564;DHT22;19894;48.452;11.494;2022-12-07T13:28:46;18.60;36.40
33564;DHT22;19894;48.452;11.494;2022-12-07T13:31:31;18.60;36.50
33564;DHT22;19894;48.452;11.494;2022-12-07T13:33:58;18.60;36.40
33564;DHT22;19894;48.452;11.494;2022-12-07T13:36:26;18.60;36.40
33564;DHT22;19894;48.452;11.494;2022-12-07T13:38:57;18.60;36.40
33564;DHT22;19894;48.452;11.494;2022-12-07T13:41:28;18.60;36.40
33564;DHT22;19894;48.452;11.494;2022-12-07T13:44:02;18.60;36.30
33564;DHT22;19894;48.452;11.494;2022-12-07T13:46:49;18.60;36.30
33564;DHT22;19894;48.452;11.494;2022-12-07T13:49:26;18.60;36.30
33564;DHT22;19894;48.452;11.494;2022-12-07T13:51:53;18.60;36.30
33564;DHT22;19894;48.452;11.494;2022-12-07T13:54:20;18.60;36.30
33564;DHT22;19894;48.452;11.494;2022-12-07T13:56:51;18.60;36.30
33564;DHT22;19894;48.452;11.494;2022-12-07T13:59:22;18.60;36.40
33564;DHT22;19894;48.452;11.494;2022-12-07T14:01:50;18.60;36.40
33564;DHT22;19894;48.452;11.494;2022-12-07T14:04:40;18.60;36.40
33564;DHT22;19894;48.452;11.494;2022-12-07T14:09:57;18.60;36.30
33564;DHT22;19894;48.452;11.494;2022-12-07T14:12:24;18.70;36.30
33564;DHT22;19894;48.452;11.494;2022-12-07T14:14:51;18.60;36.30
33564;DHT22;19894;48.452;11.494;2022-12-07T14:17:22;18.70;36.40
33564;DHT22;19894;48.452;11.494;2022-12-07T14:19:53;18.60;36.30
33564;DHT22;19894;48.452;11.494;2022-12-07T14:22:37;18.60;36.40
33564;DHT22;19894;48.452;11.494;2022-12-07T14:25:16;18.70;36.30
33564;DHT22;19894;48.452;11.494;2022-12-07T14:28:09;18.60;36.30
33564;DHT22;19894;48.452;11.494;2022-12-07T14:30:49;18.60;36.30
33564;DHT22;19894;48.452;11.494;2022-12-07T14:33:15;18.60;36.80
33564;DHT22;19894;48.452;11.494;2022-12-07T14:35:41;18.60;36.30
33564;DHT22;19894;48.452;11.494;2022-12-07T14:38:07;18.60;36.30
33564;DHT22;19894;48.452;11.494;2022-12-07T14:40:33;18.60;36.30
33564;DHT22;19894;48.452;11.494;2022-12-07T14:43:04;18.60;36.30
33564;DHT22;19894;48.452;11.494;2022-12-07T14:45:32;18.60;36.20
33564;DHT22;19894;48.452;11.494;2022-12-07T14:47:58;18.60;36.20
33564;DHT22;19894;48.452;11.494;2022-12-07T14:50:24;18.60;36.20
33564;DHT22;19894;48.452;11.494;2022-12-07T14:52:54;18.60;36.20
33564;DHT22;19894;48.452;11.494;2022-12-07T14:55:24;18.60;36.20
33564;DHT22;19894;48.452;11.494;2022-12-07T14:57:50;18.60;36.20
33564;DHT22;19894;48.452;11.494;2022-12-07T15:00:17;18.60;36.30
33564;DHT22;19894;48.452;11.494;2022-12-07T15:02:44;18.60;36.20
33564;DHT22;19894;48.452;11.494;2022-12-07T15:05:11;18.60;36.20
33564;DHT22;19894;48.452;11.494;2022-12-07T15:07:36;18.60;36.20
33564;DHT22;19894;48.452;11.494;2022-12-07T15:10:02;18.60;36.20
33564;DHT22;19894;48.452;11.494;2022-12-07T15:12:28;18.60;36.20
33564;DHT22;19894;48.452;11.494;2022-12-07T15:14:54;18.60;36.10
33564;DHT22;19894;48.452;11.494;2022-12-07T15:17:19;18.60;36.20
33564;DHT22;19894;48.452;11.494;2022-12-07T15:19:45;18.70;36.20
33564;DHT22;19894;48.452;11.494;2022-12-07T15:22:11;18.70;36.30
33564;DHT22;19894;48.452;11.494;2022-12-07T15:24:37;18.70;36.30
33564;DHT22;19894;48.452;11.494;2022-12-07T15:27:03;18.60;36.20
33564;DHT22;19894;48.452;11.494;2022-12-07T15:29:29;18.60;36.10
33564;DHT22;19894;48.452;11.494;2022-12-07T15:31:54;18.60;36.10
33564;DHT22;19894;48.452;11.494;2022-12-07T15:34:20;18.60;36.10
33564;DHT22;19894;48.452;11.494;2022-12-07T15:36:46;18.70;36.20
33564;DHT22;19894;48.452;11.494;2022-12-07T15:39:12;18.60;36.10
33564;DHT22;19894;48.452;11.494;2022-12-07T15:41:38;18.60;36.10
33564;DHT22;19894;48.452;11.494;2022-12-07T15:44:04;18.60;36.10
33564;DHT22;19894;48.452;11.494;2022-12-07T15:46:48;18.60;36.10
33564;DHT22;19894;48.452;11.494;2022-12-07T15:49:17;18.60;36.10
33564;DHT22;19894;48.452;11.494;2022-12-07T15:51:44;18.60;36.00
33564;DHT22;19894;48.452;11.494;2022-12-07T15:54:22;18.60;36.10
33564;DHT22;19894;48.452;11.494;2022-12-07T15:56:48;18.60;36.00
33564;DHT22;19894;48.452;11.494;2022-12-07T15:59:14;18.60;36.00
33564;DHT22;19894;48.452;11.494;2022-12-07T16:01:40;18.60;36.10
33564;DHT22;19894;48.452;11.494;2022-12-07T16:04:05;18.60;36.10
33564;DHT22;19894;48.452;11.494;2022-12-07T16:06:31;18.60;36.10
33564;DHT22;19894;48.452;11.494;2022-12-07T16:08:56;18.60;36.10
33564;DHT22;19894;48.452;11.494;2022-12-07T16:11:22;18.60;36.10
33564;DHT22;19894;48.452;11.494;2022-12-07T16:13:48;18.60;36.10
33564;DHT22;19894;48.452;11.494;2022-12-07T16:16:15;18.60;36.10
33564;DHT22;19894;48.452;11.494;2022-12-07T16:18:43;18.60;36.10
33564;DHT22;19894;48.452;11.494;2022-12-07T16:21:09;18.70;36.10
33564;DHT22;19894;48.452;11.494;2022-12-07T16:23:35;18.60;36.10
33564;DHT22;19894;48.452;11.494;2022-12-07T16:26:07;18.60;36.10
33564;DHT22;19894;48.452;11.494;2022-12-07T16:28:34;18.70;36.70
33564;DHT22;19894;48.452;11.494;2022-12-07T16:31:01;18.70;36.10
33564;DHT22;19894;48.452;11.494;2022-12-07T16:33:27;18.60;36.10
33564;DHT22;19894;48.452;11.494;2022-12-07T16:35:52;18.70;36.10
33564;DHT22;19894;48.452;11.494;2022-12-07T16:38:18;18.60;36.10
33564;DHT22;19894;48.452;11.494;2022-12-07T16:40:43;18.60;36.10
33564;DHT22;19894;48.452;11.494;2022-12-07T16:43:14;18.60;36.10
33564;DHT22;19894;48.452;11.494;2022-12-07T16:45:40;18.60;36.10
33564;DHT22;19894;48.452;11.494;2022-12-07T16:48:05;18.60;36.10
33564;DHT22;19894;48.452;11.494;2022-12-07T16:50:31;18.60;36.00
33564;DHT22;19894;48.452;11.494;2022-12-07T16:52:57;18.60;36.00
33564;DHT22;19894;48.452;11.494;2022-12-07T16:55:22;18.60;36.00
33564;DHT22;19894;48.452;11.494;2022-12-07T16:57:48;18.60;36.00
33564;DHT22;19894;48.452;11.494;2022-12-07T17:00:13;18.60;36.00
33564;DHT22;19894;48.452;11.494;2022-12-07T17:02:39;18.60;36.10
33564;DHT22;19894;48.452;11.494;2022-12-07T17:05:05;18.60;36.10
33564;DHT22;19894;48.452;11.494;2022-12-07T17:07:30;18.60;36.10
33564;DHT22;19894;48.452;11.494;2022-12-07T17:09:56;18.60;36.00
33564;DHT22;19894;48.452;11.494;2022-12-07T17:12:21;18.60;36.00
33564;DHT22;19894;48.452;11.494;2022-12-07T17:14:47;18.60;36.00
33564;DHT22;19894;48.452;11.494;2022-12-07T17:17:31;18.60;36.10
33564;DHT22;19894;48.452;11.494;2022-12-07T17:19:57;18.60;36.00
33564;DHT22;19894;48.452;11.494;2022-12-07T17:22:23;18.70;36.10